TimeEDT,TemperatureF,Dew PointF,Humidity,Sea Level PressureIn,VisibilityMPH,Wind Direction,Wind SpeedMPH,Gust SpeedMPH,PrecipitationIn,Events,Conditions,WindDirDegrees,DateUTC
12:51 AM,66.0,55.0,68,30.14,10.0,WSW,5.8,-,N/A,,Mostly Cloudy,240,2013-08-16 04:51:00
1:51 AM,63.0,55.0,75,30.14,10.0,SSW,4.6,-,N/A,,Scattered Clouds,210,2013-08-16 05:51:00
2:51 AM,64.0,55.9,75,30.13,10.0,WSW,5.8,-,N/A,,Mostly Cloudy,240,2013-08-16 06:51:00
3:51 AM,62.1,55.9,80,30.14,10.0,Calm,Calm,-,N/A,,Mostly Cloudy,0,2013-08-16 07:51:00
4:51 AM,62.1,55.0,78,30.14,10.0,Calm,Calm,-,N/A,,Scattered Clouds,0,2013-08-16 08:51:00
5:51 AM,62.1,55.0,78,30.14,10.0,West,3.5,-,N/A,,Mostly Cloudy,260,2013-08-16 09:51:00
6:51 AM,62.1,55.0,78,30.15,10.0,West,4.6,-,N/A,,Mostly Cloudy,260,2013-08-16 10:51:00
7:51 AM,68.0,57.0,68,30.15,10.0,Calm,Calm,-,N/A,,Mostly Cloudy,0,2013-08-16 11:51:00
8:51 AM,70.0,55.0,59,30.16,10.0,Calm,Calm,-,N/A,,Mostly Cloudy,0,2013-08-16 12:51:00
9:51 AM,73.9,55.0,52,30.17,10.0,Calm,Calm,-,N/A,,Mostly Cloudy,0,2013-08-16 13:51:00
10:51 AM,77.0,51.1,40,30.17,10.0,NNW,3.5,-,N/A,,Scattered Clouds,330,2013-08-16 14:51:00
11:51 AM,78.1,48.0,35,30.17,10.0,West,5.8,-,N/A,,Scattered Clouds,260,2013-08-16 15:51:00
12:51 PM,77.0,48.9,37,30.16,10.0,ENE,6.9,-,N/A,,Scattered Clouds,60,2013-08-16 16:51:00
1:51 PM,77.0,48.0,36,30.16,10.0,ESE,6.9,-,N/A,,Scattered Clouds,120,2013-08-16 17:51:00
2:51 PM,77.0,48.9,37,30.15,10.0,Variable,3.5,-,N/A,,Scattered Clouds,0,2013-08-16 18:51:00
3:51 PM,78.1,50.0,37,30.14,10.0,Variable,5.8,-,N/A,,Mostly Cloudy,0,2013-08-16 19:51:00
4:51 PM,77.0,51.1,40,30.14,10.0,Variable,4.6,-,N/A,,Mostly Cloudy,0,2013-08-16 20:51:00
5:51 PM,77.0,53.1,43,30.15,10.0,SSE,5.8,-,N/A,,Mostly Cloudy,160,2013-08-16 21:51:00
6:51 PM,75.0,53.1,46,30.15,10.0,SSE,9.2,-,N/A,,Mostly Cloudy,160,2013-08-16 22:51:00
7:51 PM,73.9,54.0,50,30.17,10.0,SSE,5.8,-,N/A,,Mostly Cloudy,160,2013-08-16 23:51:00
8:51 PM,73.0,53.1,49,30.18,10.0,SSE,4.6,-,N/A,,Mostly Cloudy,150,2013-08-17 00:51:00
9:51 PM,71.1,54.0,55,30.20,10.0,South,4.6,-,N/A,,Mostly Cloudy,170,2013-08-17 01:51:00
10:51 PM,70.0,54.0,57,30.20,10.0,SSW,3.5,-,N/A,,Mostly Cloudy,200,2013-08-17 02:51:00
11:51 PM,64.9,54.0,68,30.21,10.0,SW,5.8,-,N/A,,Scattered Clouds,220,2013-08-17 03:51:00